Allen, OK

6:29 AM CST on February 28, 2015 (GMT -0600)
Emergency Operations Center | Change Station
CLOSE
Current Station
Personal Weather Station
Location: Holdenville, OK
Elevation: 908 ft
Nearby Weather Stations
Active Advisory: Winter Weather Advisory Active Notice: Record Report, Local Storm Report

Elev 908 ft 35.08 °N, 96.40 °W | Updated 4 minutes ago

Snow
Snow
22.0 °F
Feels Like 22 °F
N
2.0
Wind Variable Wind from NE
Gusts 3.0 mph

Today
High -- | Low -- °F
--% Chance of Precip.
Yesterday
High -- | Low -- °F
Precip. -- in
6:56 AM 6:20 PM
Waxing Gibbous, 77% visible
Pressure 30.41 in
Visibility 3.0 miles
Clouds Scattered Clouds 1500 ft
Mostly Cloudy 2100 ft
Overcast 5000 ft
Windchill 22 °F
Dew Point 20 °F
Humidity 93%
Rainfall 0.00 in
Snow Depth Not available.
UV 0 out of 12
Pollen 3.70 out of 12
Air Quality Not available.
Flu Activity Not available.
METAR KADH 281215Z AUTO 07003KT 3SM -SN SCT015 BKN021 OVC050 M06/M06 A3041 RMK AO2

More Conditions Fewer Conditions

Pressure 30.41 in
Visibility 3.0 miles
Clouds Scattered Clouds 1500 ft
Mostly Cloudy 2100 ft
Overcast 5000 ft
Windchill 22 °F
Dew Point 20 °F
Humidity 93%
Rainfall 0.00 in
Snow Depth Not available.
UV 0 out of 12
Pollen 3.70 out of 12
Air Quality Not available.
Flu Activity Not available.
METAR KADH 281215Z AUTO 07003KT 3SM -SN SCT015 BKN021 OVC050 M06/M06 A3041 RMK AO2

More Conditions Fewer Conditions

10-Day Weather Forecast

Almanac

Astronomy

Feb. 28, 2015 Rise Set
Actual Time
Civil Twilight
Nautical Twilight
Astronomical Twilight
Moon
Length of Visible Light
Length of Day
Tomorrow will be .
, % of the Moon is Illuminated

Today's Extremes

State Highs State Lows

Community

WunderPhotos

Upload Photos

1,800,998 photos uploaded!

WunderBlogs® & News

Nearby

Air Quality

  Air Quality AQ Index Pollutant
Not available.

Snow Depth

Station Depth Elevation

Earthquake Activity

City Distance Mag. Time & Date
Minimum magnitude displayed is 2.5.

Coastal Water Temperatures

Place Temperature

Nearby Weather Stations

Winter Weather Advisory
Statement as of 4:00 AM CST on February 28, 2015

... Winter Weather Advisory now in effect until 6 PM CST this
evening...

* main impact: 1 to 3 inches of new snowfall today.

* Other impacts: slick and hazardous roads are expected.

Precautionary/preparedness actions...

Be careful if you have to travel. Even small amounts of ice and
snow can make roads and sidewalks slick and dangerous.